sensor_id;sensor_type;location;lat;lon;timestamp;pressure;altitude;pressure_sealevel;temperature;humidity
56040;BME280;43937;41.366;2.072;2023-12-07T00:12:18;101210.91;;;8.71;68.36
56040;BME280;43937;41.366;2.072;2023-12-07T00:14:43;101198.94;;;8.54;68.24
56040;BME280;43937;41.366;2.072;2023-12-07T00:19:02;101187.94;;;8.65;68.19
56040;BME280;43937;41.366;2.072;2023-12-07T00:21:27;101177.63;;;8.49;68.15
56040;BME280;43937;41.366;2.072;2023-12-07T00:26:25;101171.94;;;8.62;68.26
56040;BME280;43937;41.366;2.072;2023-12-07T00:28:51;101184.75;;;8.80;67.52
56040;BME280;43937;41.366;2.072;2023-12-07T00:31:16;101164.38;;;8.66;67.92
56040;BME280;43937;41.366;2.072;2023-12-07T00:35:08;101175.06;;;8.77;67.76
56040;BME280;43937;41.366;2.072;2023-12-07T00:38:04;101134.69;;;8.45;66.98
56040;BME280;43937;41.366;2.072;2023-12-07T00:41:49;101165.34;;;8.55;67.45
56040;BME280;43937;41.366;2.072;2023-12-07T00:47:25;101157.81;;;8.39;67.51
56040;BME280;43937;41.366;2.072;2023-12-07T00:53:32;101164.16;;;8.29;68.08
56040;BME280;43937;41.366;2.072;2023-12-07T00:55:57;101193.44;;;8.25;68.54
56040;BME280;43937;41.366;2.072;2023-12-07T00:58:23;101191.44;;;8.27;68.55
56040;BME280;43937;41.366;2.072;2023-12-07T01:04:53;101183.41;;;8.06;68.73
56040;BME280;43937;41.366;2.072;2023-12-07T01:07:18;101191.84;;;8.13;68.78
56040;BME280;43937;41.366;2.072;2023-12-07T01:09:44;101176.56;;;8.02;68.98
56040;BME280;43937;41.366;2.072;2023-12-07T01:12:09;101158.25;;;7.85;68.90
56040;BME280;43937;41.366;2.072;2023-12-07T01:16:13;101177.69;;;7.90;68.86
56040;BME280;43937;41.366;2.072;2023-12-07T01:21:27;101204.66;;;8.01;69.33
56040;BME280;43937;41.366;2.072;2023-12-07T01:23:53;101208.94;;;7.94;69.35
56040;BME280;43937;41.366;2.072;2023-12-07T01:28:03;101212.50;;;8.04;69.71
56040;BME280;43937;41.366;2.072;2023-12-07T01:33:15;101217.38;;;8.20;68.18
56040;BME280;43937;41.366;2.072;2023-12-07T01:35:40;101186.97;;;8.07;68.47
56040;BME280;43937;41.366;2.072;2023-12-07T01:47:01;101204.94;;;8.48;68.12
56040;BME280;43937;41.366;2.072;2023-12-07T01:53:34;101175.09;;;8.38;68.08
56040;BME280;43937;41.366;2.072;2023-12-07T01:58:23;101180.34;;;8.49;67.71
56040;BME280;43937;41.366;2.072;2023-12-07T02:03:52;101167.59;;;8.31;67.22
56040;BME280;43937;41.366;2.072;2023-12-07T02:06:42;101161.53;;;8.38;67.15
56040;BME280;43937;41.366;2.072;2023-12-07T02:09:07;101152.38;;;8.49;66.50
56040;BME280;43937;41.366;2.072;2023-12-07T02:13:55;101180.63;;;8.85;65.88
56040;BME280;43937;41.366;2.072;2023-12-07T02:18:39;101177.19;;;8.93;65.73
56040;BME280;43937;41.366;2.072;2023-12-07T02:24:47;101191.75;;;8.92;65.18
56040;BME280;43937;41.366;2.072;2023-12-07T02:29:46;101193.78;;;8.70;66.68
56040;BME280;43937;41.366;2.072;2023-12-07T02:34:53;101211.63;;;8.63;66.20
56040;BME280;43937;41.366;2.072;2023-12-07T02:39:43;101182.78;;;8.53;66.41
56040;BME280;43937;41.366;2.072;2023-12-07T02:42:09;101200.63;;;8.65;66.30
56040;BME280;43937;41.366;2.072;2023-12-07T02:46:11;101198.94;;;8.54;66.31
56040;BME280;43937;41.366;2.072;2023-12-07T02:50:46;101181.78;;;8.44;66.54
56040;BME280;43937;41.366;2.072;2023-12-07T02:55:09;101176.94;;;8.47;67.08
56040;BME280;43937;41.366;2.072;2023-12-07T03:00:59;101169.66;;;8.48;66.83
56040;BME280;43937;41.366;2.072;2023-12-07T03:03:25;101169.66;;;8.48;66.39
56040;BME280;43937;41.366;2.072;2023-12-07T03:05:50;101183.50;;;8.64;67.11
56040;BME280;43937;41.366;2.072;2023-12-07T03:09:12;101186.50;;;8.81;67.32
56040;BME280;43937;41.366;2.072;2023-12-07T03:11:37;101178.59;;;8.97;66.69
56040;BME280;43937;41.366;2.072;2023-12-07T03:14:58;101182.03;;;8.99;66.15
56040;BME280;43937;41.366;2.072;2023-12-07T03:19:03;101166.56;;;9.09;65.86
56040;BME280;43937;41.366;2.072;2023-12-07T03:23:12;101136.03;;;8.88;65.74
56040;BME280;43937;41.366;2.072;2023-12-07T03:26:51;101125.75;;;8.91;65.47
56040;BME280;43937;41.366;2.072;2023-12-07T03:29:17;101125.31;;;8.96;65.58
56040;BME280;43937;41.366;2.072;2023-12-07T03:31:42;101119.47;;;8.91;65.34
56040;BME280;43937;41.366;2.072;2023-12-07T03:37:21;101159.19;;;8.92;65.88
56040;BME280;43937;41.366;2.072;2023-12-07T03:39:46;101133.88;;;8.91;66.17
56040;BME280;43937;41.366;2.072;2023-12-07T03:43:42;101140.84;;;9.04;65.47
56040;BME280;43937;41.366;2.072;2023-12-07T03:46:07;101129.03;;;8.95;65.99
56040;BME280;43937;41.366;2.072;2023-12-07T03:48:34;101155.59;;;9.01;66.16
56040;BME280;43937;41.366;2.072;2023-12-07T03:54:45;101116.78;;;8.81;65.74
56040;BME280;43937;41.366;2.072;2023-12-07T03:58:58;101150.47;;;8.88;66.29
56040;BME280;43937;41.366;2.072;2023-12-07T04:02:07;101170.75;;;8.94;65.85
56040;BME280;43937;41.366;2.072;2023-12-07T04:04:33;101149.78;;;8.77;66.39
56040;BME280;43937;41.366;2.072;2023-12-07T04:07:33;101154.34;;;8.76;66.99
56040;BME280;43937;41.366;2.072;2023-12-07T04:12:22;101150.34;;;8.70;66.88
56040;BME280;43937;41.366;2.072;2023-12-07T04:17:57;101143.78;;;8.63;66.99
56040;BME280;43937;41.366;2.072;2023-12-07T04:21:49;101152.09;;;8.71;66.77
56040;BME280;43937;41.366;2.072;2023-12-07T04:24:15;101117.09;;;8.59;66.42
56040;BME280;43937;41.366;2.072;2023-12-07T04:26:40;101115.50;;;8.56;66.58
56040;BME280;43937;41.366;2.072;2023-12-07T04:29:05;101117.94;;;8.59;65.96
56040;BME280;43937;41.366;2.072;2023-12-07T04:31:31;101118.66;;;8.52;66.40
56040;BME280;43937;41.366;2.072;2023-12-07T04:37:01;101129.53;;;8.42;66.87
56040;BME280;43937;41.366;2.072;2023-12-07T04:39:47;101116.25;;;8.39;66.98
56040;BME280;43937;41.366;2.072;2023-12-07T04:42:12;101082.97;;;8.17;66.81
56040;BME280;43937;41.366;2.072;2023-12-07T04:44:38;101134.81;;;8.43;67.27
56040;BME280;43937;41.366;2.072;2023-12-07T04:47:04;101112.22;;;8.33;67.12
56040;BME280;43937;41.366;2.072;2023-12-07T04:49:52;101124.81;;;8.44;66.99
56040;BME280;43937;41.366;2.072;2023-12-07T04:53:22;101140.66;;;8.48;66.89
56040;BME280;43937;41.366;2.072;2023-12-07T04:55:48;101133.19;;;8.31;66.95
56040;BME280;43937;41.366;2.072;2023-12-07T04:58:15;101103.50;;;8.00;66.54
56040;BME280;43937;41.366;2.072;2023-12-07T05:00:41;101134.78;;;8.14;67.46
56040;BME280;43937;41.366;2.072;2023-12-07T05:03:32;101141.91;;;8.15;67.68
56040;BME280;43937;41.366;2.072;2023-12-07T05:08:24;101153.88;;;8.22;68.17
56040;BME280;43937;41.366;2.072;2023-12-07T05:12:01;101180.03;;;8.23;68.12
56040;BME280;43937;41.366;2.072;2023-12-07T05:15:30;101148.84;;;7.98;68.59
56040;BME280;43937;41.366;2.072;2023-12-07T05:17:55;101175.88;;;8.19;68.79
56040;BME280;43937;41.366;2.072;2023-12-07T05:20:21;101156.31;;;8.06;68.48
56040;BME280;43937;41.366;2.072;2023-12-07T05:24:34;101169.03;;;8.15;68.74
56040;BME280;43937;41.366;2.072;2023-12-07T05:27:00;101172.03;;;8.32;68.13
56040;BME280;43937;41.366;2.072;2023-12-07T05:30:13;101134.22;;;8.20;67.84
56040;BME280;43937;41.366;2.072;2023-12-07T05:34:38;101138.34;;;8.24;68.53
56040;BME280;43937;41.366;2.072;2023-12-07T05:37:04;101121.50;;;8.21;68.24
56040;BME280;43937;41.366;2.072;2023-12-07T05:39:29;101126.63;;;8.34;67.94
56040;BME280;43937;41.366;2.072;2023-12-07T05:41:55;101115.81;;;8.43;67.64
56040;BME280;43937;41.366;2.072;2023-12-07T05:44:21;101109.53;;;8.53;67.53
56040;BME280;43937;41.366;2.072;2023-12-07T05:46:48;101120.94;;;8.56;66.97
56040;BME280;43937;41.366;2.072;2023-12-07T05:49:13;101087.25;;;8.49;67.33
56040;BME280;43937;41.366;2.072;2023-12-07T05:51:39;101115.06;;;8.70;66.98
56040;BME280;43937;41.366;2.072;2023-12-07T05:54:04;101106.81;;;8.53;67.55
56040;BME280;43937;41.366;2.072;2023-12-07T05:56:31;101114.81;;;8.64;66.86
56040;BME280;43937;41.366;2.072;2023-12-07T05:58:57;101127.94;;;8.68;66.79
56040;BME280;43937;41.366;2.072;2023-12-07T06:01:22;101130.94;;;8.65;66.82
56040;BME280;43937;41.366;2.072;2023-12-07T06:03:49;101132.66;;;8.66;66.85
56040;BME280;43937;41.366;2.072;2023-12-07T06:07:12;101139.22;;;8.74;66.99
56040;BME280;43937;41.366;2.072;2023-12-07T06:10:41;101118.53;;;8.43;66.97
56040;BME280;43937;41.366;2.072;2023-12-07T06:13:06;101141.91;;;8.74;67.23
56040;BME280;43937;41.366;2.072;2023-12-07T06:15:33;101127.50;;;8.73;66.50
56040;BME280;43937;41.366;2.072;2023-12-07T06:17:58;101151.91;;;8.83;66.58
56040;BME280;43937;41.366;2.072;2023-12-07T06:20:24;101167.31;;;8.92;66.92
56040;BME280;43937;41.366;2.072;2023-12-07T06:22:49;101139.28;;;9.01;65.95
56040;BME280;43937;41.366;2.072;2023-12-07T06:25:15;101153.13;;;9.17;65.22
56040;BME280;43937;41.366;2.072;2023-12-07T06:27:41;101114.63;;;8.85;65.69
56040;BME280;43937;41.366;2.072;2023-12-07T06:30:07;101152.56;;;9.14;65.38
56040;BME280;43937;41.366;2.072;2023-12-07T06:32:32;101113.03;;;9.02;64.43
56040;BME280;43937;41.366;2.072;2023-12-07T06:34:59;101123.72;;;9.03;64.36
56040;BME280;43937;41.366;2.072;2023-12-07T06:37:24;101102.94;;;8.75;65.39
56040;BME280;43937;41.366;2.072;2023-12-07T06:39:50;101117.66;;;8.72;65.86
56040;BME280;43937;41.366;2.072;2023-12-07T06:42:15;101147.75;;;8.88;65.66
56040;BME280;43937;41.366;2.072;2023-12-07T06:44:50;101131.75;;;8.85;66.01
56040;BME280;43937;41.366;2.072;2023-12-07T06:47:16;101158.59;;;8.98;64.92
56040;BME280;43937;41.366;2.072;2023-12-07T06:49:41;101150.94;;;8.84;65.80
56040;BME280;43937;41.366;2.072;2023-12-07T06:52:07;101150.34;;;8.70;66.56
56040;BME280;43937;41.366;2.072;2023-12-07T06:54:33;101118.06;;;8.67;66.01
56040;BME280;43937;41.366;2.072;2023-12-07T06:56:59;101142.19;;;8.80;65.88
56040;BME280;43937;41.366;2.072;2023-12-07T06:59:25;101154.34;;;8.76;66.26
56040;BME280;43937;41.366;2.072;2023-12-07T07:01:50;101160.91;;;8.83;66.07
56040;BME280;43937;41.366;2.072;2023-12-07T07:04:16;101160.63;;;8.77;66.05
56040;BME280;43937;41.366;2.072;2023-12-07T07:06:41;101144.06;;;8.70;65.95
56040;BME280;43937;41.366;2.072;2023-12-07T07:09:07;101151.09;;;8.63;66.07
56040;BME280;43937;41.366;2.072;2023-12-07T07:11:33;101175.19;;;8.85;66.71
56040;BME280;43937;41.366;2.072;2023-12-07T07:13:59;101152.66;;;8.75;65.92
56040;BME280;43937;41.366;2.072;2023-12-07T07:16:25;101185.16;;;9.04;65.18
56040;BME280;43937;41.366;2.072;2023-12-07T07:18:50;101201.75;;;9.11;65.15
56040;BME280;43937;41.366;2.072;2023-12-07T07:21:16;101183.59;;;9.11;64.78
56040;BME280;43937;41.366;2.072;2023-12-07T07:23:41;101167.91;;;8.86;65.40
56040;BME280;43937;41.366;2.072;2023-12-07T07:27:23;101192.31;;;9.05;65.62
56040;BME280;43937;41.366;2.072;2023-12-07T07:29:48;101153.63;;;8.84;65.77
56040;BME280;43937;41.366;2.072;2023-12-07T07:32:14;101181.16;;;9.08;64.72
56040;BME280;43937;41.366;2.072;2023-12-07T07:34:40;101140.88;;;8.94;65.04
56040;BME280;43937;41.366;2.072;2023-12-07T07:37:54;101170.41;;;9.16;64.79
56040;BME280;43937;41.366;2.072;2023-12-07T07:40:19;101192.25;;;9.25;64.55
56040;BME280;43937;41.366;2.072;2023-12-07T07:42:45;101181.41;;;9.25;64.03
56040;BME280;43937;41.366;2.072;2023-12-07T07:45:10;101176.22;;;9.31;63.59
56040;BME280;43937;41.366;2.072;2023-12-07T07:47:36;101160.22;;;9.28;63.33
56040;BME280;43937;41.366;2.072;2023-12-07T07:50:01;101170.97;;;9.30;63.29
56040;BME280;43937;41.366;2.072;2023-12-07T07:53:53;101182.25;;;9.35;63.97
56040;BME280;43937;41.366;2.072;2023-12-07T07:56:19;101170.50;;;9.34;63.46
56040;BME280;43937;41.366;2.072;2023-12-07T08:00:48;101166.16;;;9.51;63.16
56040;BME280;43937;41.366;2.072;2023-12-07T08:03:13;101144.63;;;9.68;62.83
56040;BME280;43937;41.366;2.072;2023-12-07T08:05:39;101137.66;;;9.83;62.33
56040;BME280;43937;41.366;2.072;2023-12-07T08:08:04;101171.38;;;10.18;61.35
56040;BME280;43937;41.366;2.072;2023-12-07T08:10:29;101166.97;;;10.52;60.54
56040;BME280;43937;41.366;2.072;2023-12-07T08:12:55;101187.91;;;10.70;60.67
56040;BME280;43937;41.366;2.072;2023-12-07T08:15:51;101152.38;;;10.53;59.53
56040;BME280;43937;41.366;2.072;2023-12-07T08:18:17;101185.66;;;11.09;58.81
56040;BME280;43937;41.366;2.072;2023-12-07T08:20:42;101199.97;;;11.29;58.77
56040;BME280;43937;41.366;2.072;2023-12-07T08:23:08;101178.97;;;11.04;58.45
56040;BME280;43937;41.366;2.072;2023-12-07T08:25:38;101188.09;;;10.94;58.56
56040;BME280;43937;41.366;2.072;2023-12-07T08:28:03;101199.97;;;11.29;57.34
56040;BME280;43937;41.366;2.072;2023-12-07T08:30:29;101165.69;;;11.00;58.39
56040;BME280;43937;41.366;2.072;2023-12-07T08:32:55;101203.31;;;11.49;56.80
56040;BME280;43937;41.366;2.072;2023-12-07T08:35:20;101209.25;;;11.44;56.89
56040;BME280;43937;41.366;2.072;2023-12-07T08:37:46;101194.25;;;11.83;56.18
56040;BME280;43937;41.366;2.072;2023-12-07T08:40:12;101199.66;;;11.93;55.18
56040;BME280;43937;41.366;2.072;2023-12-07T08:42:40;101172.44;;;11.75;56.20
56040;BME280;43937;41.366;2.072;2023-12-07T08:45:06;101202.75;;;12.06;55.99
56040;BME280;43937;41.366;2.072;2023-12-07T08:47:32;101186.00;;;12.01;54.63
56040;BME280;43937;41.366;2.072;2023-12-07T08:49:57;101195.22;;;12.00;54.73
56040;BME280;43937;41.366;2.072;2023-12-07T08:52:22;101179.38;;;12.03;54.88
56040;BME280;43937;41.366;2.072;2023-12-07T08:54:48;101203.50;;;12.24;53.99
56040;BME280;43937;41.366;2.072;2023-12-07T08:57:13;101189.22;;;12.38;54.05
56040;BME280;43937;41.366;2.072;2023-12-07T08:59:39;101177.88;;;12.09;54.41
56040;BME280;43937;41.366;2.072;2023-12-07T09:02:04;101185.69;;;11.96;54.79
56040;BME280;43937;41.366;2.072;2023-12-07T09:04:30;101192.38;;;11.75;56.00
56040;BME280;43937;41.366;2.072;2023-12-07T09:06:55;101185.84;;;11.94;55.20
56040;BME280;43937;41.366;2.072;2023-12-07T09:09:21;101192.47;;;11.91;55.10
56040;BME280;43937;41.366;2.072;2023-12-07T09:11:47;101168.16;;;11.72;55.27
56040;BME280;43937;41.366;2.072;2023-12-07T09:14:13;101181.78;;;12.06;55.48
56040;BME280;43937;41.366;2.072;2023-12-07T09:16:47;101193.56;;;12.15;55.21
56040;BME280;43937;41.366;2.072;2023-12-07T09:19:13;101189.47;;;12.11;55.19
56040;BME280;43937;41.366;2.072;2023-12-07T09:21:40;101186.91;;;12.01;54.93
56040;BME280;43937;41.366;2.072;2023-12-07T09:24:05;101166.81;;;12.10;55.01
56040;BME280;43937;41.366;2.072;2023-12-07T09:26:47;101194.66;;;12.38;54.42
56040;BME280;43937;41.366;2.072;2023-12-07T09:31:01;101151.00;;;12.47;53.46
56040;BME280;43937;41.366;2.072;2023-12-07T09:35:26;101147.78;;;12.59;53.20
56040;BME280;43937;41.366;2.072;2023-12-07T09:40:03;101120.97;;;12.47;53.06
56040;BME280;43937;41.366;2.072;2023-12-07T09:42:30;101159.88;;;12.81;52.72
56040;BME280;43937;41.366;2.072;2023-12-07T09:44:55;101157.97;;;13.15;52.53
56040;BME280;43937;41.366;2.072;2023-12-07T09:48:52;101115.31;;;12.73;52.77
56040;BME280;43937;41.366;2.072;2023-12-07T09:51:42;101146.53;;;13.19;51.97
56040;BME280;43937;41.366;2.072;2023-12-07T09:54:09;101144.16;;;13.08;51.80
56040;BME280;43937;41.366;2.072;2023-12-07T09:56:36;101123.00;;;12.94;52.71
56040;BME280;43937;41.366;2.072;2023-12-07T09:59:01;101118.72;;;13.07;51.68
56040;BME280;43937;41.366;2.072;2023-12-07T10:01:30;101145.34;;;13.30;51.46
56040;BME280;43937;41.366;2.072;2023-12-07T10:04:24;101141.53;;;13.47;51.24
56040;BME280;43937;41.366;2.072;2023-12-07T10:06:52;101133.69;;;13.36;51.00
56040;BME280;43937;41.366;2.072;2023-12-07T10:09:17;101150.94;;;13.37;51.05
56040;BME280;43937;41.366;2.072;2023-12-07T10:11:47;101143.41;;;13.47;50.73
56040;BME280;43937;41.366;2.072;2023-12-07T10:14:12;101139.28;;;13.59;50.82
56040;BME280;43937;41.366;2.072;2023-12-07T10:16:38;101129.31;;;13.66;49.94
56040;BME280;43937;41.366;2.072;2023-12-07T10:19:29;101140.19;;;13.83;50.29
56040;BME280;43937;41.366;2.072;2023-12-07T10:21:55;101130.28;;;13.82;50.20
56040;BME280;43937;41.366;2.072;2023-12-07T10:24:22;101125.84;;;13.81;49.82
56040;BME280;43937;41.366;2.072;2023-12-07T10:26:50;101131.94;;;13.91;49.23
56040;BME280;43937;41.366;2.072;2023-12-07T10:29:19;101120.28;;;13.97;49.08
56040;BME280;43937;41.366;2.072;2023-12-07T10:31:45;101122.59;;;14.08;48.92
56040;BME280;43937;41.366;2.072;2023-12-07T10:35:27;101100.59;;;14.02;49.11
56040;BME280;43937;41.366;2.072;2023-12-07T10:37:54;101100.16;;;14.36;48.34
56040;BME280;43937;41.366;2.072;2023-12-07T10:40:20;101103.13;;;14.49;48.22
56040;BME280;43937;41.366;2.072;2023-12-07T10:42:48;101085.00;;;14.56;48.11
56040;BME280;43937;41.366;2.072;2023-12-07T10:45:14;101094.31;;;15.00;47.03
56040;BME280;43937;41.366;2.072;2023-12-07T10:47:43;101077.97;;;15.06;46.88
56040;BME280;43937;41.366;2.072;2023-12-07T10:50:10;101079.47;;;14.94;46.60
56040;BME280;43937;41.366;2.072;2023-12-07T10:52:51;101048.25;;;14.65;47.21
56040;BME280;43937;41.366;2.072;2023-12-07T10:55:22;101085.47;;;14.98;46.94
56040;BME280;43937;41.366;2.072;2023-12-07T10:57:55;101075.63;;;15.33;46.11
56040;BME280;43937;41.366;2.072;2023-12-07T11:00:22;101070.03;;;15.41;45.72
56040;BME280;43937;41.366;2.072;2023-12-07T11:02:53;101071.06;;;15.55;45.73
56040;BME280;43937;41.366;2.072;2023-12-07T11:05:34;101065.56;;;15.70;45.62
56040;BME280;43937;41.366;2.072;2023-12-07T11:09:35;101020.25;;;15.74;45.35
56040;BME280;43937;41.366;2.072;2023-12-07T11:12:12;101044.16;;;15.95;44.48
56040;BME280;43937;41.366;2.072;2023-12-07T11:14:42;101022.22;;;15.80;45.05
56040;BME280;43937;41.366;2.072;2023-12-07T11:17:08;101010.81;;;15.98;44.58
56040;BME280;43937;41.366;2.072;2023-12-07T11:22:06;101015.75;;;16.31;43.99
56040;BME280;43937;41.366;2.072;2023-12-07T11:24:32;101005.75;;;16.23;43.89
56040;BME280;43937;41.366;2.072;2023-12-07T11:28:51;100961.81;;;16.23;43.78
56040;BME280;43937;41.366;2.072;2023-12-07T11:31:17;100980.34;;;16.42;43.93
56040;BME280;43937;41.366;2.072;2023-12-07T11:33:42;100974.03;;;16.48;43.73
56040;BME280;43937;41.366;2.072;2023-12-07T11:36:11;100966.00;;;16.75;43.75
56040;BME280;43937;41.366;2.072;2023-12-07T11:38:38;100973.78;;;17.00;44.58
56040;BME280;43937;41.366;2.072;2023-12-07T11:41:20;100951.09;;;16.91;45.40
56040;BME280;43937;41.366;2.072;2023-12-07T11:43:46;100955.38;;;17.00;46.01
56040;BME280;43937;41.366;2.072;2023-12-07T11:46:12;100962.41;;;17.09;45.77
56040;BME280;43937;41.366;2.072;2023-12-07T11:48:38;100930.16;;;17.38;45.61
56040;BME280;43937;41.366;2.072;2023-12-07T11:51:05;100927.19;;;17.39;45.17
56040;BME280;43937;41.366;2.072;2023-12-07T11:53:34;100949.28;;;17.73;45.13
56040;BME280;43937;41.366;2.072;2023-12-07T11:56:04;100951.03;;;17.87;44.49
56040;BME280;43937;41.366;2.072;2023-12-07T11:58:45;100923.09;;;17.83;44.13
56040;BME280;43937;41.366;2.072;2023-12-07T12:01:21;100817.53;;;17.23;44.04
56040;BME280;43937;41.366;2.072;2023-12-07T12:04:04;100878.59;;;18.13;43.07
56040;BME280;43937;41.366;2.072;2023-12-07T12:06:46;100908.66;;;18.61;43.13
56040;BME280;43937;41.366;2.072;2023-12-07T12:32:22;100856.72;;;19.10;41.72
56040;BME280;43937;41.366;2.072;2023-12-07T12:59:06;100712.56;;;17.39;43.73
56040;BME280;43937;41.366;2.072;2023-12-07T13:33:28;100626.69;;;16.98;54.11
56040;BME280;43937;41.366;2.072;2023-12-07T13:59:15;100806.09;;;17.26;62.12
56040;BME280;43937;41.366;2.072;2023-12-07T14:01:41;100809.91;;;17.25;62.81
56040;BME280;43937;41.366;2.072;2023-12-07T14:04:07;100815.84;;;17.29;63.09
56040;BME280;43937;41.366;2.072;2023-12-07T14:07:51;100806.09;;;17.26;62.92
56040;BME280;43937;41.366;2.072;2023-12-07T14:11:58;100788.75;;;17.19;63.27
56040;BME280;43937;41.366;2.072;2023-12-07T14:15:23;100800.41;;;17.28;63.18
56040;BME280;43937;41.366;2.072;2023-12-07T14:17:48;100784.75;;;17.28;63.26
56040;BME280;43937;41.366;2.072;2023-12-07T14:20:14;100776.69;;;17.27;63.42
56040;BME280;43937;41.366;2.072;2023-12-07T14:22:40;100789.59;;;17.39;63.39
56040;BME280;43937;41.366;2.072;2023-12-07T14:25:05;100746.84;;;17.17;63.77
56040;BME280;43937;41.366;2.072;2023-12-07T14:27:31;100770.56;;;17.31;63.79
56040;BME280;43937;41.366;2.072;2023-12-07T14:31:48;100777.72;;;17.12;64.39
56040;BME280;43937;41.366;2.072;2023-12-07T14:34:15;100772.25;;;17.19;64.05
56040;BME280;43937;41.366;2.072;2023-12-07T14:37:07;100781.97;;;17.15;64.29
56040;BME280;43937;41.366;2.072;2023-12-07T14:39:34;100776.63;;;16.93;65.37
56040;BME280;43937;41.366;2.072;2023-12-07T14:42:38;100781.28;;;16.86;65.74
56040;BME280;43937;41.366;2.072;2023-12-07T14:47:02;100771.34;;;16.85;65.79
56040;BME280;43937;41.366;2.072;2023-12-07T14:49:28;100772.13;;;16.79;66.20
56040;BME280;43937;41.366;2.072;2023-12-07T14:51:54;100791.00;;;16.89;66.14
56040;BME280;43937;41.366;2.072;2023-12-07T14:54:21;100770.78;;;16.62;67.08
56040;BME280;43937;41.366;2.072;2023-12-07T14:56:47;100794.19;;;16.92;66.69
56040;BME280;43937;41.366;2.072;2023-12-07T15:00:41;100777.56;;;16.66;67.28
56040;BME280;43937;41.366;2.072;2023-12-07T15:03:07;100782.81;;;16.61;67.38
56040;BME280;43937;41.366;2.072;2023-12-07T15:05:32;100783.94;;;16.73;66.58
56040;BME280;43937;41.366;2.072;2023-12-07T15:09:15;100778.91;;;16.77;66.27
56040;BME280;43937;41.366;2.072;2023-12-07T15:11:40;100789.03;;;16.76;66.42
56040;BME280;43937;41.366;2.072;2023-12-07T15:14:06;100773.63;;;16.82;66.19
56040;BME280;43937;41.366;2.072;2023-12-07T15:16:31;100796.63;;;16.74;66.65
56040;BME280;43937;41.366;2.072;2023-12-07T15:18:58;100787.41;;;16.88;66.56
56040;BME280;43937;41.366;2.072;2023-12-07T15:21:24;100760.72;;;16.76;66.37
56040;BME280;43937;41.366;2.072;2023-12-07T15:23:50;100786.59;;;17.08;65.62
56040;BME280;43937;41.366;2.072;2023-12-07T15:26:16;100785.78;;;17.14;65.39
56040;BME280;43937;41.366;2.072;2023-12-07T15:30:27;100730.09;;;16.85;65.59
56040;BME280;43937;41.366;2.072;2023-12-07T15:32:55;100775.59;;;16.94;65.82
56040;BME280;43937;41.366;2.072;2023-12-07T15:35:20;100773.44;;;16.83;66.71
56040;BME280;43937;41.366;2.072;2023-12-07T15:37:46;100763.25;;;16.77;66.29
56040;BME280;43937;41.366;2.072;2023-12-07T15:40:11;100767.22;;;16.68;66.42
56040;BME280;43937;41.366;2.072;2023-12-07T15:42:40;100752.81;;;16.59;66.85
56040;BME280;43937;41.366;2.072;2023-12-07T15:45:07;100749.56;;;16.42;67.53
56040;BME280;43937;41.366;2.072;2023-12-07T15:47:33;100757.41;;;16.45;67.66
56040;BME280;43937;41.366;2.072;2023-12-07T15:49:59;100782.22;;;16.65;67.16
56040;BME280;43937;41.366;2.072;2023-12-07T15:53:09;100757.19;;;16.40;67.53
56040;BME280;43937;41.366;2.072;2023-12-07T15:55:35;100753.75;;;16.32;67.32
56040;BME280;43937;41.366;2.072;2023-12-07T15:58:00;100754.97;;;16.22;67.63
56040;BME280;43937;41.366;2.072;2023-12-07T16:00:26;100775.84;;;16.10;68.56
56040;BME280;43937;41.366;2.072;2023-12-07T16:03:49;100785.03;;;15.96;69.43
56040;BME280;43937;41.366;2.072;2023-12-07T16:06:15;100736.94;;;15.72;69.32
56040;BME280;43937;41.366;2.072;2023-12-07T16:08:40;100719.56;;;15.65;69.45
56040;BME280;43937;41.366;2.072;2023-12-07T16:11:06;100775.00;;;15.82;70.59
56040;BME280;43937;41.366;2.072;2023-12-07T16:13:31;100779.16;;;15.71;71.77
56040;BME280;43937;41.366;2.072;2023-12-07T16:15:56;100769.25;;;15.55;72.43
56040;BME280;43937;41.366;2.072;2023-12-07T16:21:11;100786.50;;;15.49;73.54
56040;BME280;43937;41.366;2.072;2023-12-07T16:23:36;100792.66;;;15.51;73.46
56040;BME280;43937;41.366;2.072;2023-12-07T16:26:02;100787.38;;;15.49;73.83
56040;BME280;43937;41.366;2.072;2023-12-07T16:29:27;100777.22;;;15.43;73.90
56040;BME280;43937;41.366;2.072;2023-12-07T16:31:53;100762.84;;;15.41;73.98
56040;BME280;43937;41.366;2.072;2023-12-07T16:34:18;100724.25;;;15.21;74.01
56040;BME280;43937;41.366;2.072;2023-12-07T16:36:46;100728.56;;;15.30;73.49
56040;BME280;43937;41.366;2.072;2023-12-07T16:39:12;100746.13;;;15.36;73.26
56040;BME280;43937;41.366;2.072;2023-12-07T16:41:38;100754.78;;;15.40;72.96
56040;BME280;43937;41.366;2.072;2023-12-07T16:44:03;100753.94;;;15.39;72.79
56040;BME280;43937;41.366;2.072;2023-12-07T16:46:29;100735.66;;;15.25;72.84
56040;BME280;43937;41.366;2.072;2023-12-07T16:49:07;100748.06;;;15.42;72.40
56040;BME280;43937;41.366;2.072;2023-12-07T16:51:33;100745.84;;;15.31;72.32
56040;BME280;43937;41.366;2.072;2023-12-07T16:55:01;100755.97;;;15.30;72.88
56040;BME280;43937;41.366;2.072;2023-12-07T16:59:21;100744.88;;;15.39;72.42
56040;BME280;43937;41.366;2.072;2023-12-07T17:01:47;100725.97;;;15.22;72.42
56040;BME280;43937;41.366;2.072;2023-12-07T17:04:12;100748.06;;;15.42;72.10
56040;BME280;43937;41.366;2.072;2023-12-07T17:06:38;100753.56;;;15.42;71.58
56040;BME280;43937;41.366;2.072;2023-12-07T17:10:38;100717.75;;;15.22;71.67
56040;BME280;43937;41.366;2.072;2023-12-07T17:14:09;100759.09;;;15.49;71.43
56040;BME280;43937;41.366;2.072;2023-12-07T17:16:35;100755.28;;;15.43;71.61
56040;BME280;43937;41.366;2.072;2023-12-07T17:19:00;100754.88;;;15.46;71.17
56040;BME280;43937;41.366;2.072;2023-12-07T17:22:07;100726.03;;;15.29;71.36
56040;BME280;43937;41.366;2.072;2023-12-07T17:24:34;100752.53;;;15.43;71.44